createdAt,value
2022-07-29T00:00:02.113Z,99889.59
2022-07-29T00:05:06.716Z,99877.75
2022-07-29T00:10:08.849Z,99885.94
2022-07-29T00:15:10.732Z,99884.78
2022-07-29T00:20:12.587Z,99879.63
2022-07-29T00:25:14.590Z,99867.88
2022-07-29T00:30:16.702Z,99854.94
2022-07-29T00:35:36.726Z,99858.00
2022-07-29T00:40:38.512Z,99850.69
2022-07-29T00:45:45.505Z,99849.72
2022-07-29T00:50:47.449Z,99849.84
2022-07-29T00:55:49.193Z,99843.91
2022-07-29T01:00:51.327Z,99826.78
2022-07-29T01:05:54.174Z,99822.31
2022-07-29T01:10:56.315Z,99826.94
2022-07-29T01:16:10.834Z,99823.75
2022-07-29T01:21:42.406Z,99821.19
2022-07-29T01:26:48.021Z,99816.94
2022-07-29T01:31:59.839Z,99810.50
2022-07-29T01:37:24.927Z,99805.75
2022-07-29T01:42:49.613Z,99798.22
2022-07-29T01:48:01.157Z,99799.44
2022-07-29T01:53:06.348Z,99804.91
2022-07-29T01:58:09.575Z,99811.31
2022-07-29T02:03:14.030Z,99811.16
2022-07-29T02:08:17.918Z,99802.56
2022-07-29T02:13:21.607Z,99804.13
2022-07-29T02:18:26.185Z,99794.03
2022-07-29T02:23:28.786Z,99793.66
2022-07-29T02:28:31.931Z,99795.34
2022-07-29T02:33:34.605Z,99796.84
2022-07-29T02:38:58.477Z,99784.63
2022-07-29T02:44:10.364Z,99786.69
2022-07-29T02:49:25.134Z,99785.53
2022-07-29T02:54:43.330Z,99781.66
2022-07-29T02:59:48.965Z,99783.22
2022-07-29T03:04:52.530Z,99786.75
2022-07-29T03:09:55.214Z,99785.84
2022-07-29T03:14:58.686Z,99788.50
2022-07-29T03:20:00.826Z,99785.78
2022-07-29T03:25:09.719Z,99786.28
2022-07-29T03:30:12.713Z,99786.69
2022-07-29T03:35:21.382Z,99775.88
2022-07-29T03:40:43.900Z,99774.00
2022-07-29T03:45:48.792Z,99770.47
2022-07-29T03:50:51.669Z,99770.84
2022-07-29T03:56:00.204Z,99773.22
2022-07-29T04:01:02.078Z,99776.91
2022-07-29T04:06:09.221Z,99776.22
2022-07-29T04:11:10.899Z,99776.56
2022-07-29T04:16:12.570Z,99777.91
2022-07-29T04:21:14.281Z,99781.31
2022-07-29T04:26:16.057Z,99774.78
2022-07-29T04:31:21.189Z,99777.22
2022-07-29T04:36:29.167Z,99780.03
2022-07-29T04:41:33.139Z,99782.31
2022-07-29T04:46:36.641Z,99778.19
2022-07-29T04:51:38.911Z,99773.41
2022-07-29T04:56:40.615Z,99770.13
2022-07-29T05:01:42.278Z,99780.19
2022-07-29T05:06:44.636Z,99772.63
2022-07-29T05:11:46.338Z,99774.31
2022-07-29T05:16:48.069Z,99777.47
2022-07-29T05:21:49.768Z,99772.56
2022-07-29T05:26:51.428Z,99775.19
2022-07-29T05:31:54.019Z,99782.16
2022-07-29T05:36:55.689Z,99772.97
2022-07-29T05:41:57.469Z,99780.00
2022-07-29T05:46:59.109Z,99777.06
2022-07-29T05:52:00.770Z,99785.50
2022-07-29T05:57:02.756Z,99784.88
2022-07-29T06:02:06.216Z,99790.59
2022-07-29T06:07:08.384Z,99783.38
2022-07-29T06:12:10.557Z,99775.47
2022-07-29T06:17:12.800Z,99786.00
2022-07-29T06:22:17.628Z,99777.56
2022-07-29T06:27:19.261Z,99779.88
2022-07-29T06:32:22.899Z,99788.50
2022-07-29T06:37:29.145Z,99786.13
2022-07-29T06:42:33.762Z,99793.81
2022-07-29T06:47:35.399Z,99793.16
2022-07-29T06:52:37.986Z,99791.16
2022-07-29T06:57:39.619Z,99795.03
2022-07-29T07:02:41.299Z,99792.97
2022-07-29T07:07:42.973Z,99794.09
2022-07-29T07:12:44.688Z,99789.75
2022-07-29T07:17:46.318Z,99788.09
2022-07-29T07:22:47.957Z,99795.25
2022-07-29T07:27:49.688Z,99796.97
2022-07-29T07:32:51.417Z,99791.25
2022-07-29T07:37:53.049Z,99792.84
2022-07-29T07:42:54.817Z,99780.09
2022-07-29T07:47:56.481Z,99783.19
2022-07-29T07:52:59.378Z,99782.47
2022-07-29T07:58:01.008Z,99777.63
2022-07-29T08:03:03.501Z,99766.97
2022-07-29T08:08:18.821Z,99767.59
2022-07-29T08:13:22.197Z,99752.78
2022-07-29T08:18:25.603Z,99742.75
2022-07-29T08:23:32.959Z,99741.66
2022-07-29T08:28:51.416Z,99744.41
2022-07-29T08:33:53.352Z,99737.72
2022-07-29T08:38:55.150Z,99731.13
2022-07-29T08:43:57.099Z,99731.34
2022-07-29T08:48:58.802Z,99727.81
2022-07-29T08:54:01.448Z,99732.53
2022-07-29T08:59:06.963Z,99719.44
2022-07-29T09:04:12.841Z,99709.25
2022-07-29T09:09:15.279Z,99707.53
2022-07-29T09:14:16.978Z,99704.81
2022-07-29T09:19:26.025Z,99700.56
2022-07-29T09:24:45.239Z,99688.25
2022-07-29T09:29:47.306Z,99683.38
2022-07-29T09:34:48.990Z,99685.25
2022-07-29T09:39:51.184Z,99687.22
2022-07-29T09:44:52.852Z,99692.84
2022-07-29T09:49:59.381Z,99682.94
2022-07-29T09:55:09.162Z,99677.50
2022-07-29T10:00:17.034Z,99681.69
2022-07-29T10:05:21.615Z,99664.34
2022-07-29T10:10:24.861Z,99660.34
2022-07-29T10:15:29.540Z,99659.31
2022-07-29T10:20:31.712Z,99648.34
2022-07-29T10:25:33.435Z,99642.91
2022-07-29T10:30:35.491Z,99641.84
2022-07-29T10:35:43.211Z,99640.84
2022-07-29T10:41:36.275Z,99640.69
2022-07-29T10:46:46.345Z,99618.25
2022-07-29T10:52:10.413Z,99626.56
2022-07-29T10:57:53.057Z,99632.25
2022-07-29T11:02:56.484Z,99624.09
2022-07-29T11:08:20.488Z,99624.34
2022-07-29T11:14:03.572Z,99621.72
2022-07-29T11:19:14.592Z,99615.34
2022-07-29T11:24:35.236Z,99620.69
2022-07-29T11:29:41.745Z,99619.81
2022-07-29T11:34:45.301Z,99606.31
2022-07-29T11:39:53.712Z,99612.38
2022-07-29T11:44:55.304Z,99606.63
2022-07-29T11:49:59.947Z,99600.91
2022-07-29T11:55:09.937Z,99613.31
2022-07-29T12:00:14.563Z,99606.47
2022-07-29T12:05:36.019Z,99614.97
2022-07-29T12:10:39.732Z,99597.56
2022-07-29T12:15:47.175Z,99591.72
2022-07-29T12:20:49.717Z,99599.81
2022-07-29T12:25:51.525Z,99587.25
2022-07-29T12:30:55.673Z,99591.94
2022-07-29T12:36:07.177Z,99590.00
2022-07-29T12:41:09.932Z,99583.69
2022-07-29T12:46:15.971Z,99579.47
2022-07-29T12:51:17.978Z,99573.53
2022-07-29T12:56:41.722Z,99570.06
2022-07-29T13:01:42.191Z,99570.91
2022-07-29T13:06:51.075Z,99567.16
2022-07-29T13:11:54.193Z,99551.84
2022-07-29T13:17:16.773Z,99552.81
2022-07-29T13:22:20.509Z,99564.31
2022-07-29T13:27:27.148Z,99566.19
2022-07-29T13:32:31.210Z,99555.72
2022-07-29T13:37:35.284Z,99555.09
2022-07-29T13:42:37.385Z,99546.78
2022-07-29T13:47:39.352Z,99544.94
2022-07-29T13:52:41.021Z,99545.44
2022-07-29T13:57:42.697Z,99542.09
2022-07-29T14:02:44.452Z,99534.59
2022-07-29T14:07:46.188Z,99533.94
2022-07-29T14:12:47.835Z,99530.03
2022-07-29T14:17:49.483Z,99525.28
2022-07-29T14:22:51.173Z,99517.44
2022-07-29T14:27:54.195Z,99508.53
2022-07-29T14:32:55.824Z,99532.41
2022-07-29T14:37:58.216Z,99527.34
2022-07-29T14:42:59.861Z,99526.44
2022-07-29T14:48:01.673Z,99520.81
2022-07-29T14:53:03.864Z,99519.88
2022-07-29T14:58:10.942Z,99524.00
2022-07-29T15:03:22.944Z,99526.34
2022-07-29T15:08:26.388Z,99520.97
2022-07-29T15:13:28.069Z,99519.44
2022-07-29T15:18:29.701Z,99519.44
2022-07-29T15:23:31.337Z,99526.44
2022-07-29T15:28:32.979Z,99515.75
2022-07-29T15:33:34.631Z,99505.44
2022-07-29T15:38:41.892Z,99502.91
2022-07-29T15:43:50.305Z,99502.09
2022-07-29T15:48:52.007Z,99497.63
2022-07-29T15:53:53.882Z,99492.72
2022-07-29T15:58:55.675Z,99489.75
2022-07-29T16:03:58.408Z,99478.88
2022-07-29T16:09:00.624Z,99483.97
2022-07-29T16:14:02.388Z,99486.22
2022-07-29T16:19:04.899Z,99480.72
2022-07-29T16:24:07.151Z,99471.28
2022-07-29T16:29:08.828Z,99468.72
2022-07-29T16:34:10.459Z,99476.88
2022-07-29T16:39:12.806Z,99475.50
2022-07-29T16:44:14.515Z,99475.09
2022-07-29T16:49:19.351Z,99478.22
2022-07-29T16:54:21.304Z,99479.47
2022-07-29T16:59:23.024Z,99478.91
2022-07-29T17:04:24.687Z,99470.56
2022-07-29T17:09:26.443Z,99477.66
2022-07-29T17:14:31.125Z,99478.06
2022-07-29T17:19:35.452Z,99474.34
2022-07-29T17:24:37.291Z,99480.00
2022-07-29T17:29:40.257Z,99466.09
2022-07-29T17:34:43.035Z,99474.94
2022-07-29T17:39:44.948Z,99473.28
2022-07-29T17:44:46.596Z,99470.28
2022-07-29T17:49:48.253Z,99479.09
2022-07-29T17:54:49.984Z,99470.88
2022-07-29T17:59:51.734Z,99464.88
2022-07-29T18:04:53.377Z,99474.78
2022-07-29T18:10:00.019Z,99469.56
2022-07-29T18:15:02.162Z,99474.78
2022-07-29T18:20:04.815Z,99486.59
2022-07-29T18:25:07.683Z,99492.56
2022-07-29T18:30:09.549Z,99493.06
2022-07-29T18:35:11.237Z,99499.41
2022-07-29T18:40:13.144Z,99478.41
2022-07-29T18:45:19.261Z,99485.94
2022-07-29T18:50:26.946Z,99485.59
2022-07-29T18:55:30.789Z,99479.63
2022-07-29T19:00:32.426Z,99492.38
2022-07-29T19:05:34.136Z,99493.97
2022-07-29T19:10:35.770Z,99509.88
2022-07-29T19:15:37.518Z,99502.53
2022-07-29T19:20:39.969Z,99518.72
2022-07-29T19:25:48.201Z,99530.09
2022-07-29T19:30:55.765Z,99531.25
2022-07-29T19:35:57.755Z,99528.97
2022-07-29T19:40:59.450Z,99538.66
2022-07-29T19:46:01.187Z,99538.75
2022-07-29T19:51:03.115Z,99546.66
2022-07-29T19:56:05.261Z,99541.78
2022-07-29T20:01:11.420Z,99558.53
2022-07-29T20:06:13.295Z,99550.38
2022-07-29T20:11:14.968Z,99555.81
2022-07-29T20:16:16.858Z,99551.84
2022-07-29T20:21:18.567Z,99549.16
2022-07-29T20:26:20.218Z,99549.00
2022-07-29T20:31:22.273Z,99556.19
2022-07-29T20:36:24.102Z,99554.63
2022-07-29T20:41:26.329Z,99552.81
2022-07-29T20:46:28.104Z,99553.25
2022-07-29T20:51:29.779Z,99566.91
2022-07-29T20:56:31.439Z,99566.44
2022-07-29T21:01:33.168Z,99565.13
2022-07-29T21:06:35.054Z,99575.22
2022-07-29T21:11:44.692Z,99578.41
2022-07-29T21:16:46.752Z,99567.06
2022-07-29T21:21:48.408Z,99562.00
2022-07-29T21:27:10.967Z,99569.94
2022-07-29T21:32:11.745Z,99575.50
2022-07-29T21:37:13.417Z,99569.34
2022-07-29T21:42:15.155Z,99566.69
2022-07-29T21:47:16.794Z,99565.31
2022-07-29T21:52:18.899Z,99562.97
2022-07-29T21:57:20.566Z,99568.28
2022-07-29T22:02:22.214Z,99568.41
2022-07-29T22:07:23.843Z,99567.13
2022-07-29T22:12:25.480Z,99567.22
2022-07-29T22:17:27.178Z,99571.72
2022-07-29T22:22:28.903Z,99582.91
2022-07-29T22:27:30.709Z,99573.22
2022-07-29T22:32:34.155Z,99573.47
2022-07-29T22:37:35.841Z,99573.34
2022-07-29T22:42:40.708Z,99563.66
2022-07-29T22:47:48.040Z,99559.75
2022-07-29T22:52:50.193Z,99560.03
2022-07-29T22:57:51.848Z,99564.56
2022-07-29T23:02:53.528Z,99556.91
2022-07-29T23:07:55.207Z,99556.91
2022-07-29T23:12:56.916Z,99564.47
2022-07-29T23:17:59.459Z,99568.22
2022-07-29T23:23:01.143Z,99579.38
2022-07-29T23:28:03.575Z,99582.88
2022-07-29T23:33:05.272Z,99590.91
2022-07-29T23:38:06.939Z,99585.44
2022-07-29T23:43:09.090Z,99582.94
2022-07-29T23:48:10.805Z,99589.28
2022-07-29T23:53:12.773Z,99589.84
2022-07-29T23:58:14.513Z,99592.19
